sensor_id;sensor_type;location;lat;lon;timestamp;temperature;humidity
54930;DHT22;40833;53.238;6.576;2022-12-18T00:02:13;-3.50;99.90
54930;DHT22;40833;53.238;6.576;2022-12-18T00:04:39;-3.50;99.90
54930;DHT22;40833;53.238;6.576;2022-12-18T00:07:04;-3.50;99.90
54930;DHT22;40833;53.238;6.576;2022-12-18T00:09:30;-3.50;99.90
54930;DHT22;40833;53.238;6.576;2022-12-18T00:11:56;-3.50;99.90
54930;DHT22;40833;53.238;6.576;2022-12-18T00:19:14;-3.50;99.90
54930;DHT22;40833;53.238;6.576;2022-12-18T00:21:41;-3.60;99.90
54930;DHT22;40833;53.238;6.576;2022-12-18T00:24:07;-3.60;99.90
54930;DHT22;40833;53.238;6.576;2022-12-18T00:26:34;-2.70;99.90
54930;DHT22;40833;53.238;6.576;2022-12-18T00:29:03;-3.70;99.90
54930;DHT22;40833;53.238;6.576;2022-12-18T00:31:29;-1.60;99.90
54930;DHT22;40833;53.238;6.576;2022-12-18T00:33:55;-1.10;99.90
54930;DHT22;40833;53.238;6.576;2022-12-18T00:36:27;-3.70;99.90
54930;DHT22;40833;53.238;6.576;2022-12-18T00:38:54;-3.70;99.90
54930;DHT22;40833;53.238;6.576;2022-12-18T00:41:20;-3.60;99.90
54930;DHT22;40833;53.238;6.576;2022-12-18T00:44:06;-3.80;99.90
54930;DHT22;40833;53.238;6.576;2022-12-18T00:46:33;-3.80;99.90
54930;DHT22;40833;53.238;6.576;2022-12-18T00:48:59;-3.80;99.90
54930;DHT22;40833;53.238;6.576;2022-12-18T00:51:25;-3.90;99.90
54930;DHT22;40833;53.238;6.576;2022-12-18T00:53:52;-3.90;99.90
54930;DHT22;40833;53.238;6.576;2022-12-18T00:56:18;-3.70;99.90
54930;DHT22;40833;53.238;6.576;2022-12-18T00:58:44;-4.00;99.90
54930;DHT22;40833;53.238;6.576;2022-12-18T01:01:09;-3.70;99.90
54930;DHT22;40833;53.238;6.576;2022-12-18T01:03:35;-2.90;99.90
54930;DHT22;40833;53.238;6.576;2022-12-18T01:06:06;-3.90;99.90
54930;DHT22;40833;53.238;6.576;2022-12-18T01:08:32;-4.00;99.90
54930;DHT22;40833;53.238;6.576;2022-12-18T01:10:58;-4.00;99.90
54930;DHT22;40833;53.238;6.576;2022-12-18T01:13:24;-4.00;99.90
54930;DHT22;40833;53.238;6.576;2022-12-18T01:15:50;-4.00;99.90
54930;DHT22;40833;53.238;6.576;2022-12-18T01:18:16;-4.00;99.90
54930;DHT22;40833;53.238;6.576;2022-12-18T01:20:42;-4.10;99.90
54930;DHT22;40833;53.238;6.576;2022-12-18T01:23:07;-4.10;99.90
54930;DHT22;40833;53.238;6.576;2022-12-18T01:25:35;-4.10;99.90
54930;DHT22;40833;53.238;6.576;2022-12-18T01:28:02;-4.00;99.90
54930;DHT22;40833;53.238;6.576;2022-12-18T01:30:27;-4.10;99.90
54930;DHT22;40833;53.238;6.576;2022-12-18T01:32:53;-4.20;99.90
54930;DHT22;40833;53.238;6.576;2022-12-18T01:35:19;-3.60;99.90
54930;DHT22;40833;53.238;6.576;2022-12-18T01:37:45;-4.40;99.90
54930;DHT22;40833;53.238;6.576;2022-12-18T01:40:11;-4.30;99.90
54930;DHT22;40833;53.238;6.576;2022-12-18T01:42:36;-4.20;99.90
54930;DHT22;40833;53.238;6.576;2022-12-18T01:47:59;-3.80;99.90
54930;DHT22;40833;53.238;6.576;2022-12-18T01:50:41;-4.40;99.90
54930;DHT22;40833;53.238;6.576;2022-12-18T01:53:17;-4.30;99.90
54930;DHT22;40833;53.238;6.576;2022-12-18T01:55:53;-4.40;99.90
54930;DHT22;40833;53.238;6.576;2022-12-18T02:03:23;-4.50;99.90
54930;DHT22;40833;53.238;6.576;2022-12-18T02:08:22;-4.50;99.90
54930;DHT22;40833;53.238;6.576;2022-12-18T02:14:20;-4.50;99.90
54930;DHT22;40833;53.238;6.576;2022-12-18T02:16:34;-4.80;99.90
54930;DHT22;40833;53.238;6.576;2022-12-18T02:22:06;-4.70;99.90
54930;DHT22;40833;53.238;6.576;2022-12-18T02:25:04;-4.70;99.90
54930;DHT22;40833;53.238;6.576;2022-12-18T02:27:33;-4.70;99.90
54930;DHT22;40833;53.238;6.576;2022-12-18T02:30:01;-4.70;99.90
54930;DHT22;40833;53.238;6.576;2022-12-18T02:32:37;-4.70;99.90
54930;DHT22;40833;53.238;6.576;2022-12-18T02:35:07;-4.80;99.90
54930;DHT22;40833;53.238;6.576;2022-12-18T02:37:34;-5.00;99.90
54930;DHT22;40833;53.238;6.576;2022-12-18T02:40:02;-5.00;99.90
54930;DHT22;40833;53.238;6.576;2022-12-18T02:42:29;-4.80;99.90
54930;DHT22;40833;53.238;6.576;2022-12-18T02:44:55;-4.90;99.90
54930;DHT22;40833;53.238;6.576;2022-12-18T02:47:23;-4.80;99.90
54930;DHT22;40833;53.238;6.576;2022-12-18T02:53:17;-4.90;99.90
54930;DHT22;40833;53.238;6.576;2022-12-18T03:03:33;-5.30;99.90
54930;DHT22;40833;53.238;6.576;2022-12-18T03:06:12;-5.00;99.90
54930;DHT22;40833;53.238;6.576;2022-12-18T03:08:44;-5.00;99.90
54930;DHT22;40833;53.238;6.576;2022-12-18T03:11:13;-5.00;99.90
54930;DHT22;40833;53.238;6.576;2022-12-18T03:13:47;-5.10;99.90
54930;DHT22;40833;53.238;6.576;2022-12-18T03:16:17;-5.10;99.90
54930;DHT22;40833;53.238;6.576;2022-12-18T03:18:46;-5.20;99.90
54930;DHT22;40833;53.238;6.576;2022-12-18T03:21:13;-5.10;99.90
54930;DHT22;40833;53.238;6.576;2022-12-18T03:23:44;-5.00;99.90
54930;DHT22;40833;53.238;6.576;2022-12-18T03:26:16;-5.00;99.90
54930;DHT22;40833;53.238;6.576;2022-12-18T03:28:49;-5.10;99.90
54930;DHT22;40833;53.238;6.576;2022-12-18T03:31:17;-5.10;99.90
54930;DHT22;40833;53.238;6.576;2022-12-18T03:33:53;-5.30;99.90
54930;DHT22;40833;53.238;6.576;2022-12-18T03:36:19;-5.20;99.90
54930;DHT22;40833;53.238;6.576;2022-12-18T03:38:45;-5.30;99.90
54930;DHT22;40833;53.238;6.576;2022-12-18T03:43:50;-5.20;99.90
54930;DHT22;40833;53.238;6.576;2022-12-18T03:46:29;-5.20;99.90
54930;DHT22;40833;53.238;6.576;2022-12-18T03:49:00;-5.20;99.90
54930;DHT22;40833;53.238;6.576;2022-12-18T03:54:05;-5.30;99.90
54930;DHT22;40833;53.238;6.576;2022-12-18T03:56:37;-5.40;99.90
54930;DHT22;40833;53.238;6.576;2022-12-18T03:59:04;-5.10;99.90
54930;DHT22;40833;53.238;6.576;2022-12-18T04:01:34;-5.30;99.90
54930;DHT22;40833;53.238;6.576;2022-12-18T04:04:03;-5.20;99.90
54930;DHT22;40833;53.238;6.576;2022-12-18T04:06:30;-5.40;99.90
54930;DHT22;40833;53.238;6.576;2022-12-18T04:08:58;-5.50;99.90
54930;DHT22;40833;53.238;6.576;2022-12-18T04:11:24;-5.20;99.90
54930;DHT22;40833;53.238;6.576;2022-12-18T04:13:50;-5.30;99.90
54930;DHT22;40833;53.238;6.576;2022-12-18T04:16:15;-5.20;99.90
54930;DHT22;40833;53.238;6.576;2022-12-18T04:18:41;-5.20;99.90
54930;DHT22;40833;53.238;6.576;2022-12-18T04:25:59;-5.50;99.90
54930;DHT22;40833;53.238;6.576;2022-12-18T04:28:24;-5.50;99.90
54930;DHT22;40833;53.238;6.576;2022-12-18T04:33:16;-5.50;99.90
54930;DHT22;40833;53.238;6.576;2022-12-18T04:35:42;-5.50;99.90
54930;DHT22;40833;53.238;6.576;2022-12-18T04:38:08;-5.50;99.90
54930;DHT22;40833;53.238;6.576;2022-12-18T04:40:36;-5.50;99.90
54930;DHT22;40833;53.238;6.576;2022-12-18T04:43:02;-5.20;99.90
54930;DHT22;40833;53.238;6.576;2022-12-18T04:50:20;-5.50;99.90
54930;DHT22;40833;53.238;6.576;2022-12-18T04:55:12;-5.80;99.90
54930;DHT22;40833;53.238;6.576;2022-12-18T04:57:37;-5.40;99.90
54930;DHT22;40833;53.238;6.576;2022-12-18T05:00:03;-5.50;99.90
54930;DHT22;40833;53.238;6.576;2022-12-18T05:02:31;-5.70;99.90
54930;DHT22;40833;53.238;6.576;2022-12-18T05:04:57;-5.50;99.90
54930;DHT22;40833;53.238;6.576;2022-12-18T05:07:22;-5.30;99.90
54930;DHT22;40833;53.238;6.576;2022-12-18T05:09:48;-5.30;99.90
54930;DHT22;40833;53.238;6.576;2022-12-18T05:12:14;-5.60;99.90
54930;DHT22;40833;53.238;6.576;2022-12-18T05:17:05;-5.70;99.90
54930;DHT22;40833;53.238;6.576;2022-12-18T05:19:31;-5.30;99.90
54930;DHT22;40833;53.238;6.576;2022-12-18T05:21:57;-4.80;99.90
54930;DHT22;40833;53.238;6.576;2022-12-18T05:24:23;-5.50;99.90
54930;DHT22;40833;53.238;6.576;2022-12-18T05:26:48;-5.60;99.90
54930;DHT22;40833;53.238;6.576;2022-12-18T05:29:14;-5.40;99.90
54930;DHT22;40833;53.238;6.576;2022-12-18T05:31:40;-5.50;99.90
54930;DHT22;40833;53.238;6.576;2022-12-18T05:34:06;-5.40;99.90
54930;DHT22;40833;53.238;6.576;2022-12-18T05:38:58;-5.50;99.90
54930;DHT22;40833;53.238;6.576;2022-12-18T05:41:25;-5.50;99.90
54930;DHT22;40833;53.238;6.576;2022-12-18T05:43:51;-5.00;99.90
54930;DHT22;40833;53.238;6.576;2022-12-18T05:46:17;-5.60;99.90
54930;DHT22;40833;53.238;6.576;2022-12-18T05:48:44;-5.60;99.90
54930;DHT22;40833;53.238;6.576;2022-12-18T05:51:14;-5.60;99.90
54930;DHT22;40833;53.238;6.576;2022-12-18T05:53:41;-5.60;99.90
54930;DHT22;40833;53.238;6.576;2022-12-18T05:56:20;-5.50;99.90
54930;DHT22;40833;53.238;6.576;2022-12-18T06:01:15;-5.60;99.90
54930;DHT22;40833;53.238;6.576;2022-12-18T06:03:41;-5.70;99.90
54930;DHT22;40833;53.238;6.576;2022-12-18T06:06:17;-5.70;99.90
54930;DHT22;40833;53.238;6.576;2022-12-18T06:08:43;-5.80;99.90
54930;DHT22;40833;53.238;6.576;2022-12-18T06:11:09;-5.40;99.90
54930;DHT22;40833;53.238;6.576;2022-12-18T06:13:35;-5.40;99.90
54930;DHT22;40833;53.238;6.576;2022-12-18T06:16:05;-5.60;99.90
54930;DHT22;40833;53.238;6.576;2022-12-18T06:20:58;-5.60;99.90
54930;DHT22;40833;53.238;6.576;2022-12-18T06:25:50;-5.70;99.90
54930;DHT22;40833;53.238;6.576;2022-12-18T06:30:46;-5.50;99.90
54930;DHT22;40833;53.238;6.576;2022-12-18T06:33:14;-5.60;99.90
54930;DHT22;40833;53.238;6.576;2022-12-18T06:35:40;-5.90;99.90
54930;DHT22;40833;53.238;6.576;2022-12-18T06:38:05;-4.90;99.90
54930;DHT22;40833;53.238;6.576;2022-12-18T06:40:31;-5.30;99.90
54930;DHT22;40833;53.238;6.576;2022-12-18T06:42:57;-5.70;99.90
54930;DHT22;40833;53.238;6.576;2022-12-18T06:45:23;-5.70;99.90
54930;DHT22;40833;53.238;6.576;2022-12-18T06:47:49;-5.60;99.90
54930;DHT22;40833;53.238;6.576;2022-12-18T06:50:15;-5.60;99.90
54930;DHT22;40833;53.238;6.576;2022-12-18T06:52:41;-5.80;99.90
54930;DHT22;40833;53.238;6.576;2022-12-18T06:55:10;-5.90;99.90
54930;DHT22;40833;53.238;6.576;2022-12-18T07:00:03;-6.10;99.90
54930;DHT22;40833;53.238;6.576;2022-12-18T07:02:29;-6.00;99.90
54930;DHT22;40833;53.238;6.576;2022-12-18T07:04:54;-5.90;99.90
54930;DHT22;40833;53.238;6.576;2022-12-18T07:07:20;-6.10;99.90
54930;DHT22;40833;53.238;6.576;2022-12-18T07:17:04;-6.00;99.90
54930;DHT22;40833;53.238;6.576;2022-12-18T07:19:29;-6.00;99.90
54930;DHT22;40833;53.238;6.576;2022-12-18T07:21:55;-6.10;99.90
54930;DHT22;40833;53.238;6.576;2022-12-18T07:24:21;-5.90;99.90
54930;DHT22;40833;53.238;6.576;2022-12-18T07:26:46;-5.90;99.90
54930;DHT22;40833;53.238;6.576;2022-12-18T07:29:12;-6.10;99.90
54930;DHT22;40833;53.238;6.576;2022-12-18T07:31:38;-6.10;99.90
54930;DHT22;40833;53.238;6.576;2022-12-18T07:34:04;-6.10;99.90
54930;DHT22;40833;53.238;6.576;2022-12-18T07:36:30;-6.20;99.90
54930;DHT22;40833;53.238;6.576;2022-12-18T07:46:15;-5.90;99.90
54930;DHT22;40833;53.238;6.576;2022-12-18T07:48:42;-5.80;99.90
54930;DHT22;40833;53.238;6.576;2022-12-18T07:53:36;-6.00;99.90
54930;DHT22;40833;53.238;6.576;2022-12-18T07:56:06;-6.00;99.90
54930;DHT22;40833;53.238;6.576;2022-12-18T08:01:09;-6.00;99.90
54930;DHT22;40833;53.238;6.576;2022-12-18T08:03:36;-6.00;99.90
54930;DHT22;40833;53.238;6.576;2022-12-18T08:06:04;-5.90;99.90
54930;DHT22;40833;53.238;6.576;2022-12-18T08:10:56;-5.90;99.90
54930;DHT22;40833;53.238;6.576;2022-12-18T08:13:22;-5.80;99.90
54930;DHT22;40833;53.238;6.576;2022-12-18T08:16:21;-5.80;99.90
54930;DHT22;40833;53.238;6.576;2022-12-18T08:18:47;-5.80;99.90
54930;DHT22;40833;53.238;6.576;2022-12-18T08:23:40;-5.80;99.90
54930;DHT22;40833;53.238;6.576;2022-12-18T08:26:06;-5.80;99.90
54930;DHT22;40833;53.238;6.576;2022-12-18T08:30:58;-3.70;99.90
54930;DHT22;40833;53.238;6.576;2022-12-18T08:33:24;-6.10;99.90
54930;DHT22;40833;53.238;6.576;2022-12-18T08:35:50;-5.90;99.90
54930;DHT22;40833;53.238;6.576;2022-12-18T08:38:15;-5.80;99.90
54930;DHT22;40833;53.238;6.576;2022-12-18T08:40:41;-5.80;99.90
54930;DHT22;40833;53.238;6.576;2022-12-18T08:43:09;-5.90;99.90
54930;DHT22;40833;53.238;6.576;2022-12-18T08:45:54;-5.60;99.90
54930;DHT22;40833;53.238;6.576;2022-12-18T08:48:19;-5.80;99.90
54930;DHT22;40833;53.238;6.576;2022-12-18T08:50:57;-5.70;99.90
54930;DHT22;40833;53.238;6.576;2022-12-18T08:53:23;-5.70;99.90
54930;DHT22;40833;53.238;6.576;2022-12-18T08:55:49;-5.70;99.90
54930;DHT22;40833;53.238;6.576;2022-12-18T08:58:15;-3.80;99.90
54930;DHT22;40833;53.238;6.576;2022-12-18T09:00:41;-5.70;99.90
54930;DHT22;40833;53.238;6.576;2022-12-18T09:03:15;-5.70;99.90
54930;DHT22;40833;53.238;6.576;2022-12-18T09:05:41;-5.60;99.90
54930;DHT22;40833;53.238;6.576;2022-12-18T09:08:07;-5.70;99.90
54930;DHT22;40833;53.238;6.576;2022-12-18T09:12:59;-5.60;99.90
54930;DHT22;40833;53.238;6.576;2022-12-18T09:15:24;-5.50;99.90
54930;DHT22;40833;53.238;6.576;2022-12-18T09:17:50;-5.50;99.90
54930;DHT22;40833;53.238;6.576;2022-12-18T09:20:18;-5.40;99.90
54930;DHT22;40833;53.238;6.576;2022-12-18T09:22:44;-5.40;99.90
54930;DHT22;40833;53.238;6.576;2022-12-18T09:25:09;-3.50;99.90
54930;DHT22;40833;53.238;6.576;2022-12-18T09:27:35;-5.30;99.90
54930;DHT22;40833;53.238;6.576;2022-12-18T09:30:01;-5.30;99.90
54930;DHT22;40833;53.238;6.576;2022-12-18T09:32:27;-5.20;99.90
54930;DHT22;40833;53.238;6.576;2022-12-18T09:34:53;-5.10;99.90
54930;DHT22;40833;53.238;6.576;2022-12-18T09:37:18;-5.10;99.90
54930;DHT22;40833;53.238;6.576;2022-12-18T09:39:44;-5.00;99.90
54930;DHT22;40833;53.238;6.576;2022-12-18T09:42:19;-4.00;99.90
54930;DHT22;40833;53.238;6.576;2022-12-18T09:44:50;-4.80;99.90
54930;DHT22;40833;53.238;6.576;2022-12-18T09:47:33;-4.80;99.90
54930;DHT22;40833;53.238;6.576;2022-12-18T09:50:03;-4.70;99.90
54930;DHT22;40833;53.238;6.576;2022-12-18T09:52:39;-4.70;99.90
54930;DHT22;40833;53.238;6.576;2022-12-18T09:55:28;-4.60;99.90
54930;DHT22;40833;53.238;6.576;2022-12-18T09:58:13;-6.20;99.90
54930;DHT22;40833;53.238;6.576;2022-12-18T10:00:42;-4.50;99.90
54930;DHT22;40833;53.238;6.576;2022-12-18T10:03:12;-4.50;99.90
54930;DHT22;40833;53.238;6.576;2022-12-18T10:06:15;-4.50;99.90
54930;DHT22;40833;53.238;6.576;2022-12-18T10:08:51;-4.40;99.90
54930;DHT22;40833;53.238;6.576;2022-12-18T10:17:13;-4.30;99.90
54930;DHT22;40833;53.238;6.576;2022-12-18T10:25:23;-4.10;99.90
54930;DHT22;40833;53.238;6.576;2022-12-18T10:27:58;-4.00;99.90
54930;DHT22;40833;53.238;6.576;2022-12-18T10:30:26;-1.50;99.90
54930;DHT22;40833;53.238;6.576;2022-12-18T10:32:52;-3.00;99.90
54930;DHT22;40833;53.238;6.576;2022-12-18T10:35:23;-3.90;99.90
54930;DHT22;40833;53.238;6.576;2022-12-18T10:40:55;-3.80;99.90
54930;DHT22;40833;53.238;6.576;2022-12-18T10:43:26;-3.80;99.90
54930;DHT22;40833;53.238;6.576;2022-12-18T10:51:06;-3.70;99.90
54930;DHT22;40833;53.238;6.576;2022-12-18T10:53:35;-3.80;99.90
54930;DHT22;40833;53.238;6.576;2022-12-18T10:56:04;-3.80;99.90
54930;DHT22;40833;53.238;6.576;2022-12-18T10:58:38;-3.60;99.90
54930;DHT22;40833;53.238;6.576;2022-12-18T11:03:39;-3.50;99.90
54930;DHT22;40833;53.238;6.576;2022-12-18T11:11:01;-3.30;99.90
54930;DHT22;40833;53.238;6.576;2022-12-18T11:13:29;-3.30;99.90
54930;DHT22;40833;53.238;6.576;2022-12-18T11:15:56;-3.20;99.90
54930;DHT22;40833;53.238;6.576;2022-12-18T11:21:06;-3.10;99.90
54930;DHT22;40833;53.238;6.576;2022-12-18T11:23:34;-2.80;99.90
54930;DHT22;40833;53.238;6.576;2022-12-18T11:26:03;-2.90;99.90
54930;DHT22;40833;53.238;6.576;2022-12-18T11:28:41;-2.80;99.90
54930;DHT22;40833;53.238;6.576;2022-12-18T11:31:15;-2.70;99.90
54930;DHT22;40833;53.238;6.576;2022-12-18T11:34:08;-2.70;99.90
54930;DHT22;40833;53.238;6.576;2022-12-18T11:36:38;-2.50;99.90
54930;DHT22;40833;53.238;6.576;2022-12-18T11:41:53;-2.50;99.90
54930;DHT22;40833;53.238;6.576;2022-12-18T11:44:55;-2.50;99.90
54930;DHT22;40833;53.238;6.576;2022-12-18T11:49:52;-2.30;99.90
54930;DHT22;40833;53.238;6.576;2022-12-18T11:52:36;-2.40;99.90
54930;DHT22;40833;53.238;6.576;2022-12-18T11:55:11;-2.30;99.90
54930;DHT22;40833;53.238;6.576;2022-12-18T12:00:21;-2.30;99.90
54930;DHT22;40833;53.238;6.576;2022-12-18T12:03:21;-2.20;99.90
54930;DHT22;40833;53.238;6.576;2022-12-18T12:09:28;-2.20;99.90
54930;DHT22;40833;53.238;6.576;2022-12-18T12:12:10;-2.20;99.90
54930;DHT22;40833;53.238;6.576;2022-12-18T12:15:02;-2.10;99.90
54930;DHT22;40833;53.238;6.576;2022-12-18T12:17:37;-2.10;99.90
54930;DHT22;40833;53.238;6.576;2022-12-18T12:20:26;-0.30;99.90
54930;DHT22;40833;53.238;6.576;2022-12-18T12:33:50;1.10;99.90
54930;DHT22;40833;53.238;6.576;2022-12-18T12:39:11;0.50;99.90
54930;DHT22;40833;53.238;6.576;2022-12-18T12:41:39;-0.70;99.90
54930;DHT22;40833;53.238;6.576;2022-12-18T12:44:37;-1.90;99.90
54930;DHT22;40833;53.238;6.576;2022-12-18T12:47:13;-1.90;99.90
54930;DHT22;40833;53.238;6.576;2022-12-18T12:49:40;-1.90;99.90
54930;DHT22;40833;53.238;6.576;2022-12-18T12:52:19;-1.80;99.90
54930;DHT22;40833;53.238;6.576;2022-12-18T12:54:48;-1.60;99.90
54930;DHT22;40833;53.238;6.576;2022-12-18T13:00:04;-1.70;99.90
54930;DHT22;40833;53.238;6.576;2022-12-18T13:08:05;-1.60;99.90
54930;DHT22;40833;53.238;6.576;2022-12-18T13:10:34;-1.50;99.90
54930;DHT22;40833;53.238;6.576;2022-12-18T13:13:06;-1.50;99.90
54930;DHT22;40833;53.238;6.576;2022-12-18T13:15:33;-1.60;99.90
54930;DHT22;40833;53.238;6.576;2022-12-18T13:20:43;-1.30;99.90
54930;DHT22;40833;53.238;6.576;2022-12-18T13:25:54;0.20;99.90
54930;DHT22;40833;53.238;6.576;2022-12-18T13:28:21;-0.30;99.90
54930;DHT22;40833;53.238;6.576;2022-12-18T13:30:50;-1.30;99.90
54930;DHT22;40833;53.238;6.576;2022-12-18T13:48:25;-1.30;99.90
54930;DHT22;40833;53.238;6.576;2022-12-18T13:51:06;-1.30;99.90
54930;DHT22;40833;53.238;6.576;2022-12-18T13:53:42;-1.30;99.90
54930;DHT22;40833;53.238;6.576;2022-12-18T13:56:08;-1.30;99.90
54930;DHT22;40833;53.238;6.576;2022-12-18T13:58:34;-1.30;99.90
54930;DHT22;40833;53.238;6.576;2022-12-18T14:01:00;-1.30;99.90
54930;DHT22;40833;53.238;6.576;2022-12-18T14:03:29;0.10;99.90
54930;DHT22;40833;53.238;6.576;2022-12-18T14:06:07;-1.30;99.90
54930;DHT22;40833;53.238;6.576;2022-12-18T14:08:44;-1.20;99.90
54930;DHT22;40833;53.238;6.576;2022-12-18T14:11:22;-1.30;99.90
54930;DHT22;40833;53.238;6.576;2022-12-18T14:13:48;-1.30;99.90
54930;DHT22;40833;53.238;6.576;2022-12-18T14:16:15;0.90;99.90
54930;DHT22;40833;53.238;6.576;2022-12-18T14:18:45;-1.30;99.90
54930;DHT22;40833;53.238;6.576;2022-12-18T14:21:29;-1.30;99.90
54930;DHT22;40833;53.238;6.576;2022-12-18T14:24:19;0.90;99.90
54930;DHT22;40833;53.238;6.576;2022-12-18T14:26:45;-1.30;99.90
54930;DHT22;40833;53.238;6.576;2022-12-18T14:34:33;-1.40;99.90
54930;DHT22;40833;53.238;6.576;2022-12-18T14:36:59;-1.40;99.90
54930;DHT22;40833;53.238;6.576;2022-12-18T14:39:24;-1.40;99.90
54930;DHT22;40833;53.238;6.576;2022-12-18T14:41:51;-0.60;99.90
54930;DHT22;40833;53.238;6.576;2022-12-18T14:44:17;0.80;99.90
54930;DHT22;40833;53.238;6.576;2022-12-18T14:46:47;-1.40;99.90
54930;DHT22;40833;53.238;6.576;2022-12-18T14:49:31;1.40;99.90
54930;DHT22;40833;53.238;6.576;2022-12-18T14:52:05;-1.50;99.90
54930;DHT22;40833;53.238;6.576;2022-12-18T14:54:32;-1.40;99.90
54930;DHT22;40833;53.238;6.576;2022-12-18T14:59:26;-1.40;99.90
54930;DHT22;40833;53.238;6.576;2022-12-18T15:01:59;-1.50;99.90
54930;DHT22;40833;53.238;6.576;2022-12-18T15:04:28;-1.40;99.90
54930;DHT22;40833;53.238;6.576;2022-12-18T15:07:20;-1.40;99.90
54930;DHT22;40833;53.238;6.576;2022-12-18T15:10:12;-1.50;99.90
54930;DHT22;40833;53.238;6.576;2022-12-18T15:20:54;-1.50;99.90
54930;DHT22;40833;53.238;6.576;2022-12-18T15:23:21;-1.60;99.90
54930;DHT22;40833;53.238;6.576;2022-12-18T15:25:54;-1.60;99.90
54930;DHT22;40833;53.238;6.576;2022-12-18T15:28:33;-1.70;99.90
54930;DHT22;40833;53.238;6.576;2022-12-18T15:33:36;-1.70;99.90
54930;DHT22;40833;53.238;6.576;2022-12-18T15:36:13;-1.80;99.90
54930;DHT22;40833;53.238;6.576;2022-12-18T15:41:11;-1.80;99.90
54930;DHT22;40833;53.238;6.576;2022-12-18T15:43:37;-1.90;99.90
54930;DHT22;40833;53.238;6.576;2022-12-18T15:46:13;-1.40;99.90
54930;DHT22;40833;53.238;6.576;2022-12-18T15:48:41;-1.90;99.90
54930;DHT22;40833;53.238;6.576;2022-12-18T15:51:17;-0.50;99.90
54930;DHT22;40833;53.238;6.576;2022-12-18T15:53:43;-2.00;99.90
54930;DHT22;40833;53.238;6.576;2022-12-18T15:56:12;-2.00;99.90
54930;DHT22;40833;53.238;6.576;2022-12-18T15:58:56;0.90;99.90
54930;DHT22;40833;53.238;6.576;2022-12-18T16:01:27;-2.00;99.90
54930;DHT22;40833;53.238;6.576;2022-12-18T16:03:53;-1.30;99.90
54930;DHT22;40833;53.238;6.576;2022-12-18T16:06:20;-0.80;99.90
54930;DHT22;40833;53.238;6.576;2022-12-18T16:08:46;-0.10;99.90
54930;DHT22;40833;53.238;6.576;2022-12-18T16:11:31;-2.00;99.90
54930;DHT22;40833;53.238;6.576;2022-12-18T16:14:24;-2.00;99.90
54930;DHT22;40833;53.238;6.576;2022-12-18T16:17:05;-2.00;99.90
54930;DHT22;40833;53.238;6.576;2022-12-18T16:19:31;0.80;99.90
54930;DHT22;40833;53.238;6.576;2022-12-18T16:21:57;-1.80;99.90
54930;DHT22;40833;53.238;6.576;2022-12-18T16:24:26;0.60;99.90
54930;DHT22;40833;53.238;6.576;2022-12-18T16:26:53;0.70;99.90
54930;DHT22;40833;53.238;6.576;2022-12-18T16:29:19;-1.60;99.90
54930;DHT22;40833;53.238;6.576;2022-12-18T16:31:50;-2.00;99.90
54930;DHT22;40833;53.238;6.576;2022-12-18T16:34:19;0.00;99.90
54930;DHT22;40833;53.238;6.576;2022-12-18T16:36:48;-1.90;99.90
54930;DHT22;40833;53.238;6.576;2022-12-18T16:39:15;0.00;99.90
54930;DHT22;40833;53.238;6.576;2022-12-18T16:41:41;-1.90;99.90
54930;DHT22;40833;53.238;6.576;2022-12-18T16:44:07;0.90;99.90
54930;DHT22;40833;53.238;6.576;2022-12-18T16:46:33;-1.90;99.90
54930;DHT22;40833;53.238;6.576;2022-12-18T16:48:59;-1.00;99.90
54930;DHT22;40833;53.238;6.576;2022-12-18T16:51:26;-1.70;99.90
54930;DHT22;40833;53.238;6.576;2022-12-18T16:53:53;-1.80;99.90
54930;DHT22;40833;53.238;6.576;2022-12-18T16:56:19;-1.70;99.90
54930;DHT22;40833;53.238;6.576;2022-12-18T16:58:55;-1.80;99.90
54930;DHT22;40833;53.238;6.576;2022-12-18T17:01:22;-1.80;99.90
54930;DHT22;40833;53.238;6.576;2022-12-18T17:03:57;-1.80;99.90
54930;DHT22;40833;53.238;6.576;2022-12-18T17:06:24;-1.80;99.90
54930;DHT22;40833;53.238;6.576;2022-12-18T17:08:57;-1.80;99.90
54930;DHT22;40833;53.238;6.576;2022-12-18T17:11:24;0.80;99.90
54930;DHT22;40833;53.238;6.576;2022-12-18T17:13:50;0.90;99.90
54930;DHT22;40833;53.238;6.576;2022-12-18T17:16:16;-1.70;99.90
54930;DHT22;40833;53.238;6.576;2022-12-18T17:18:44;-1.70;99.90
54930;DHT22;40833;53.238;6.576;2022-12-18T17:21:10;-1.70;99.90
54930;DHT22;40833;53.238;6.576;2022-12-18T17:23:37;-1.70;99.90
54930;DHT22;40833;53.238;6.576;2022-12-18T17:26:03;-1.70;99.90
54930;DHT22;40833;53.238;6.576;2022-12-18T17:28:31;-1.70;99.90
54930;DHT22;40833;53.238;6.576;2022-12-18T17:30:57;-0.40;99.90
54930;DHT22;40833;53.238;6.576;2022-12-18T17:33:24;-1.70;99.90
54930;DHT22;40833;53.238;6.576;2022-12-18T17:35:49;0.70;99.90
54930;DHT22;40833;53.238;6.576;2022-12-18T17:38:15;-1.70;99.90
54930;DHT22;40833;53.238;6.576;2022-12-18T17:40:41;-1.70;99.90
54930;DHT22;40833;53.238;6.576;2022-12-18T17:43:08;-1.70;99.90
54930;DHT22;40833;53.238;6.576;2022-12-18T17:45:38;-0.50;99.90
54930;DHT22;40833;53.238;6.576;2022-12-18T17:48:05;-1.70;99.90
54930;DHT22;40833;53.238;6.576;2022-12-18T17:50:33;-1.70;99.90
54930;DHT22;40833;53.238;6.576;2022-12-18T17:52:59;-1.70;99.90
54930;DHT22;40833;53.238;6.576;2022-12-18T17:57:52;-1.60;99.90
54930;DHT22;40833;53.238;6.576;2022-12-18T18:00:18;-1.60;99.90
54930;DHT22;40833;53.238;6.576;2022-12-18T18:02:44;-1.80;99.90
54930;DHT22;40833;53.238;6.576;2022-12-18T18:05:10;-1.60;99.90
54930;DHT22;40833;53.238;6.576;2022-12-18T18:07:37;-1.60;99.90
54930;DHT22;40833;53.238;6.576;2022-12-18T18:10:04;-1.60;99.90
54930;DHT22;40833;53.238;6.576;2022-12-18T18:12:30;-1.50;99.90
54930;DHT22;40833;53.238;6.576;2022-12-18T18:17:42;-1.50;99.90
54930;DHT22;40833;53.238;6.576;2022-12-18T18:20:08;0.30;99.90
54930;DHT22;40833;53.238;6.576;2022-12-18T18:22:34;-1.40;99.90
54930;DHT22;40833;53.238;6.576;2022-12-18T18:25:00;-1.50;99.90
54930;DHT22;40833;53.238;6.576;2022-12-18T18:27:27;0.00;99.90
54930;DHT22;40833;53.238;6.576;2022-12-18T18:29:53;-1.50;99.90
54930;DHT22;40833;53.238;6.576;2022-12-18T18:32:18;-1.50;99.90
54930;DHT22;40833;53.238;6.576;2022-12-18T18:34:44;0.40;99.90
54930;DHT22;40833;53.238;6.576;2022-12-18T18:37:10;-1.40;99.90
54930;DHT22;40833;53.238;6.576;2022-12-18T18:39:36;-1.40;99.90
54930;DHT22;40833;53.238;6.576;2022-12-18T18:42:03;-1.40;99.90
54930;DHT22;40833;53.238;6.576;2022-12-18T18:44:28;-1.40;99.90
54930;DHT22;40833;53.238;6.576;2022-12-18T18:46:55;-1.40;99.90
54930;DHT22;40833;53.238;6.576;2022-12-18T18:49:22;-0.50;99.90
54930;DHT22;40833;53.238;6.576;2022-12-18T18:51:55;-1.40;99.90
54930;DHT22;40833;53.238;6.576;2022-12-18T18:54:21;-1.40;99.90
54930;DHT22;40833;53.238;6.576;2022-12-18T18:56:48;-1.40;99.90
54930;DHT22;40833;53.238;6.576;2022-12-18T18:59:15;-1.30;99.90
54930;DHT22;40833;53.238;6.576;2022-12-18T19:01:41;-1.40;99.90
54930;DHT22;40833;53.238;6.576;2022-12-18T19:04:07;-1.40;99.90
54930;DHT22;40833;53.238;6.576;2022-12-18T19:06:33;1.30;99.90
54930;DHT22;40833;53.238;6.576;2022-12-18T19:09:01;-1.20;99.90
54930;DHT22;40833;53.238;6.576;2022-12-18T19:11:27;-0.10;99.90
54930;DHT22;40833;53.238;6.576;2022-12-18T19:14:13;-0.90;99.90
54930;DHT22;40833;53.238;6.576;2022-12-18T19:16:40;-1.30;99.90